Time;durP1;ratioP1;P1;durP2;ratioP2;P2;SDS_P1;SDS_P2;PMS_P1;PMS_P2;Temp;Humidity;BMP_temperature;BMP_pressure;BME280_temperature;BME280_humidity;BME280_pressure;Samples;Min_cycle;Max_cycle;Signal;HPM_P1;HPM_P2
2023/06/06 00:00:54;;;;;;;;;;;21.20;55.40;;;;;;10585257;27;90587;-68
2023/06/06 00:05:59;;;;;;;;;;;21.20;55.30;;;;;;10585305;27;90163;-68
2023/06/06 00:11:00;;;;;;;;;;;21.20;55.20;;;;;;10566302;27;88930;-68
2023/06/06 00:16:03;;;;;;;;;;;21.20;55.20;;;;;;10592232;27;88834;-67
2023/06/06 00:21:04;;;;;;;;;;;21.20;55.30;;;;;;10591826;27;89976;-68
2023/06/06 00:26:06;;;;;;;;;;;21.20;55.30;;;;;;10591600;27;89961;-68
2023/06/06 00:31:08;;;;;;;;;;;21.20;55.20;;;;;;10591293;27;88940;-68
2023/06/06 00:36:10;;;;;;;;;;;21.20;55.20;;;;;;10592333;27;89892;-68
2023/06/06 00:41:13;;;;;;;;;;;21.20;55.10;;;;;;10590972;27;88522;-68
2023/06/06 00:46:15;;;;;;;;;;;21.20;55.10;;;;;;10591979;27;88680;-67
2023/06/06 00:51:17;;;;;;;;;;;21.20;55.00;;;;;;10591188;27;88998;-67
2023/06/06 00:56:19;;;;;;;;;;;21.20;55.00;;;;;;10592572;27;90508;-68
2023/06/06 01:01:23;;;;;;;;;;;21.20;55.00;;;;;;10590369;27;88293;-67
2023/06/06 01:06:25;;;;;;;;;;;21.20;55.00;;;;;;10590338;27;91778;-67
2023/06/06 01:11:32;;;;;;;;;;;21.10;54.90;;;;;;10589630;27;90033;-67
2023/06/06 01:16:34;;;;;;;;;;;21.10;54.90;;;;;;10590454;27;90039;-67
2023/06/06 01:21:41;;;;;;;;;;;21.10;54.90;;;;;;10589304;27;89998;-69
2023/06/06 01:26:42;;;;;;;;;;;21.10;54.90;;;;;;10588379;27;89217;-69
2023/06/06 01:31:49;;;;;;;;;;;21.10;55.00;;;;;;10588713;27;89025;-68
2023/06/06 01:36:56;;;;;;;;;;;21.10;54.90;;;;;;10590229;27;88965;-68
2023/06/06 01:41:58;;;;;;;;;;;21.10;54.90;;;;;;10588538;27;90022;-69
2023/06/06 01:47:01;;;;;;;;;;;21.10;54.90;;;;;;10589398;27;90003;-68
2023/06/06 01:52:04;;;;;;;;;;;21.10;54.80;;;;;;10588850;27;89735;-68
2023/06/06 01:57:07;;;;;;;;;;;21.10;54.90;;;;;;10570227;27;89337;-67
2023/06/06 02:02:09;;;;;;;;;;;21.10;54.80;;;;;;10587734;27;88972;-68
2023/06/06 02:07:12;;;;;;;;;;;21.10;54.80;;;;;;10587553;27;89195;-69
2023/06/06 02:12:14;;;;;;;;;;;21.10;54.70;;;;;;10569205;27;89268;-67
2023/06/06 02:17:15;;;;;;;;;;;21.10;54.70;;;;;;10588943;27;89197;-67
2023/06/06 02:22:17;;;;;;;;;;;21.10;54.70;;;;;;10588042;27;89104;-67
2023/06/06 02:27:19;;;;;;;;;;;21.10;54.60;;;;;;10587056;27;88935;-67
2023/06/06 02:32:21;;;;;;;;;;;21.10;54.60;;;;;;10587190;27;88997;-68
2023/06/06 02:37:23;;;;;;;;;;;21.10;54.60;;;;;;10586516;27;89270;-68
2023/06/06 02:42:25;;;;;;;;;;;21.00;54.50;;;;;;10587306;27;89069;-69
2023/06/06 02:47:27;;;;;;;;;;;21.00;54.60;;;;;;10587593;27;90476;-68
2023/06/06 02:52:28;;;;;;;;;;;21.00;54.50;;;;;;10586158;27;89113;-68
2023/06/06 02:57:30;;;;;;;;;;;21.00;54.50;;;;;;10568031;27;89187;-68
2023/06/06 03:02:32;;;;;;;;;;;21.00;54.50;;;;;;10566980;27;89057;-68
2023/06/06 03:07:34;;;;;;;;;;;21.00;54.60;;;;;;10567314;27;88861;-68
2023/06/06 03:12:35;;;;;;;;;;;21.00;54.50;;;;;;10586954;27;90494;-67
2023/06/06 03:17:38;;;;;;;;;;;20.90;54.60;;;;;;10586554;27;89078;-67
2023/06/06 03:22:40;;;;;;;;;;;21.00;54.60;;;;;;10586531;27;90265;-67
2023/06/06 03:27:42;;;;;;;;;;;20.90;54.60;;;;;;10584812;27;88889;-67
2023/06/06 03:32:44;;;;;;;;;;;20.90;54.60;;;;;;10568890;27;89703;-67
2023/06/06 03:37:45;;;;;;;;;;;20.90;54.70;;;;;;10585595;27;89931;-68
2023/06/06 03:42:47;;;;;;;;;;;20.90;54.50;;;;;;10585762;27;88407;-68
2023/06/06 03:47:49;;;;;;;;;;;20.90;54.60;;;;;;10589046;27;88924;-68
2023/06/06 03:52:51;;;;;;;;;;;20.90;54.60;;;;;;10591546;27;89531;-68
2023/06/06 03:57:53;;;;;;;;;;;20.90;54.60;;;;;;10593064;27;90015;-67
2023/06/06 04:02:55;;;;;;;;;;;20.90;54.50;;;;;;10592321;27;90178;-68
2023/06/06 04:07:57;;;;;;;;;;;20.80;54.60;;;;;;10591678;27;89126;-68
2023/06/06 04:12:59;;;;;;;;;;;20.80;54.50;;;;;;10591601;27;90807;-68
2023/06/06 04:18:01;;;;;;;;;;;20.80;54.60;;;;;;10590852;27;90034;-67
2023/06/06 04:23:03;;;;;;;;;;;20.80;54.70;;;;;;10571970;27;90217;-68
2023/06/06 04:28:06;;;;;;;;;;;20.80;54.60;;;;;;10589199;27;89059;-67
2023/06/06 04:33:08;;;;;;;;;;;20.80;54.50;;;;;;10589429;27;89018;-68
2023/06/06 04:38:10;;;;;;;;;;;20.90;54.50;;;;;;10590505;27;90655;-68
2023/06/06 04:43:12;;;;;;;;;;;20.90;54.50;;;;;;10589504;27;88994;-67
2023/06/06 04:48:14;;;;;;;;;;;20.90;54.50;;;;;;10965920;22;90205;-63
2023/06/06 04:53:16;;;;;;;;;;;20.90;55.50;;;;;;10411426;28;89906;-64
2023/06/06 04:58:20;;;;;;;;;;;20.90;54.40;;;;;;10397598;28;89945;-64
2023/06/06 05:03:22;;;;;;;;;;;20.80;54.40;;;;;;10414838;28;89840;-63
2023/06/06 05:08:25;;;;;;;;;;;20.90;54.60;;;;;;10395831;28;90491;-64
2023/06/06 05:13:26;;;;;;;;;;;20.80;54.40;;;;;;10415970;28;90073;-64
2023/06/06 05:18:31;;;;;;;;;;;20.80;54.50;;;;;;10395408;28;89109;-64
2023/06/06 05:23:33;;;;;;;;;;;20.80;54.50;;;;;;10415574;28;89230;-64
2023/06/06 05:28:36;;;;;;;;;;;20.80;54.50;;;;;;10415127;28;88942;-63
2023/06/06 05:33:41;;;;;;;;;;;20.80;54.50;;;;;;10415240;28;90157;-64
2023/06/06 05:38:43;;;;;;;;;;;20.80;54.60;;;;;;10415698;28;88575;-64
2023/06/06 05:43:45;;;;;;;;;;;20.80;56.00;;;;;;10414308;28;89861;-63
2023/06/06 05:48:47;;;;;;;;;;;20.80;56.50;;;;;;10396119;28;90078;-62
2023/06/06 05:53:49;;;;;;;;;;;20.90;57.60;;;;;;10416966;28;90824;-64
2023/06/06 05:58:52;;;;;;;;;;;20.90;58.00;;;;;;10400080;28;90031;-64
2023/06/06 06:03:54;;;;;;;;;;;21.00;58.10;;;;;;10416942;28;89810;-63
2023/06/06 06:08:57;;;;;;;;;;;21.00;58.40;;;;;;10397902;27;89810;-64
2023/06/06 06:13:59;;;;;;;;;;;21.00;58.50;;;;;;10416864;28;89204;-64
2023/06/06 06:19:03;;;;;;;;;;;21.00;57.90;;;;;;10399118;28;90631;-63
2023/06/06 06:24:05;;;;;;;;;;;21.00;58.40;;;;;;10415639;28;89002;-64
2023/06/06 06:29:07;;;;;;;;;;;21.00;58.60;;;;;;10417369;28;88117;-63
2023/06/06 06:34:09;;;;;;;;;;;21.10;60.20;;;;;;10416592;28;88826;-60
2023/06/06 06:39:17;;;;;;;;;;;21.20;59.60;;;;;;10397493;28;90061;-64
2023/06/06 06:44:19;;;;;;;;;;;21.20;58.70;;;;;;10415282;28;90283;-63
2023/06/06 06:49:21;;;;;;;;;;;21.30;57.50;;;;;;10396365;28;89703;-62
2023/06/06 06:54:24;;;;;;;;;;;21.30;56.90;;;;;;10415016;28;89255;-64
2023/06/06 06:59:26;;;;;;;;;;;21.30;58.60;;;;;;10396617;28;88354;-62
2023/06/06 07:04:28;;;;;;;;;;;21.40;60.30;;;;;;10415703;28;88944;-63
2023/06/06 07:09:30;;;;;;;;;;;21.40;59.40;;;;;;10415864;28;89057;-62
2023/06/06 07:14:31;;;;;;;;;;;21.50;58.60;;;;;;10417188;28;91221;-63
2023/06/06 07:19:34;;;;;;;;;;;21.50;58.20;;;;;;10416760;28;89465;-63
2023/06/06 07:24:36;;;;;;;;;;;21.50;57.80;;;;;;10413643;28;90328;-63
2023/06/06 07:29:38;;;;;;;;;;;21.50;57.40;;;;;;10415117;28;89021;-64
2023/06/06 07:34:40;;;;;;;;;;;21.50;57.10;;;;;;10413584;28;90826;-63
2023/06/06 07:39:43;;;;;;;;;;;21.50;56.90;;;;;;10410812;28;91075;-63
2023/06/06 07:44:45;;;;;;;;;;;21.40;57.10;;;;;;10406362;28;89292;-63
2023/06/06 07:49:46;;;;;;;;;;;21.40;57.00;;;;;;10395329;28;88168;-64
2023/06/06 07:54:48;;;;;;;;;;;21.40;57.00;;;;;;10414537;28;89152;-64
2023/06/06 07:59:50;;;;;;;;;;;21.30;57.10;;;;;;10414413;28;89163;-64
2023/06/06 08:04:52;;;;;;;;;;;21.30;57.10;;;;;;10414293;28;90153;-64
2023/06/06 08:09:54;;;;;;;;;;;21.30;57.10;;;;;;10411163;28;89371;-64
2023/06/06 08:14:56;;;;;;;;;;;21.40;57.10;;;;;;10410590;28;89017;-64
2023/06/06 08:19:58;;;;;;;;;;;21.40;57.00;;;;;;10411294;28;90202;-64
2023/06/06 08:25:04;;;;;;;;;;;21.30;57.00;;;;;;10412983;28;90799;-64
2023/06/06 08:30:06;;;;;;;;;;;21.30;57.00;;;;;;10413912;28;89180;-65
2023/06/06 08:35:08;;;;;;;;;;;21.30;57.00;;;;;;10419007;28;89939;-64
2023/06/06 08:40:11;;;;;;;;;;;21.30;57.00;;;;;;10420923;28;90060;-64
2023/06/06 08:45:13;;;;;;;;;;;21.30;57.00;;;;;;10402776;28;90106;-64
2023/06/06 08:50:15;;;;;;;;;;;21.40;57.00;;;;;;10401697;28;90164;-65
2023/06/06 08:55:18;;;;;;;;;;;21.40;56.80;;;;;;10419952;28;89987;-65
2023/06/06 09:00:23;;;;;;;;;;;21.40;56.80;;;;;;10420534;28;89309;-65
2023/06/06 09:05:25;;;;;;;;;;;21.40;56.70;;;;;;10402230;28;89847;-65
2023/06/06 09:10:27;;;;;;;;;;;21.30;56.80;;;;;;10419451;28;88085;-65
2023/06/06 09:15:29;;;;;;;;;;;21.30;56.80;;;;;;10417724;28;90587;-65
2023/06/06 09:20:33;;;;;;;;;;;21.30;56.90;;;;;;10401320;28;89507;-65
2023/06/06 09:25:34;;;;;;;;;;;21.30;56.90;;;;;;10418898;28;89786;-64
2023/06/06 09:30:36;;;;;;;;;;;21.30;58.00;;;;;;10418693;28;88719;-64
2023/06/06 09:35:42;;;;;;;;;;;21.20;56.90;;;;;;10418461;28;89738;-64
2023/06/06 09:40:45;;;;;;;;;;;21.20;56.90;;;;;;10418901;28;89786;-64
2023/06/06 09:45:49;;;;;;;;;;;21.20;57.00;;;;;;10418667;27;89980;-64
2023/06/06 09:50:51;;;;;;;;;;;21.20;56.90;;;;;;10417885;28;88216;-64
2023/06/06 09:55:55;;;;;;;;;;;21.20;57.00;;;;;;10419148;28;88674;-65
2023/06/06 10:00:58;;;;;;;;;;;21.30;57.00;;;;;;10417966;28;89050;-64
2023/06/06 10:06:03;;;;;;;;;;;21.30;56.80;;;;;;10417523;28;90782;-64
2023/06/06 10:11:05;;;;;;;;;;;21.40;56.70;;;;;;10418442;28;90266;-65
2023/06/06 10:16:08;;;;;;;;;;;21.50;56.60;;;;;;10417048;28;89141;-64
2023/06/06 10:21:11;;;;;;;;;;;21.50;56.40;;;;;;10418436;28;90062;-65
2023/06/06 10:26:31;;;;;;;;;;;21.50;56.30;;;;;;10399178;28;89233;-64
2023/06/06 10:31:40;;;;;;;;;;;21.60;56.30;;;;;;10418370;28;88139;-64
2023/06/06 10:36:43;;;;;;;;;;;21.60;56.20;;;;;;10417238;28;89012;-65
2023/06/06 10:41:53;;;;;;;;;;;21.70;56.10;;;;;;10418538;28;89342;-64
2023/06/06 10:47:13;;;;;;;;;;;21.70;56.10;;;;;;10416277;28;89121;-64
2023/06/06 10:52:15;;;;;;;;;;;21.70;56.20;;;;;;10416139;28;89133;-64
2023/06/06 10:57:17;;;;;;;;;;;21.70;56.10;;;;;;10416053;27;90902;-65
2023/06/06 11:02:34;;;;;;;;;;;21.70;56.10;;;;;;10416256;28;90051;-65
2023/06/06 11:07:36;;;;;;;;;;;21.70;56.10;;;;;;10416713;28;89906;-64
2023/06/06 11:12:38;;;;;;;;;;;21.70;56.20;;;;;;10416014;28;89572;-64
2023/06/06 11:17:46;;;;;;;;;;;21.70;56.20;;;;;;10397827;28;90119;-64
2023/06/06 11:22:59;;;;;;;;;;;21.70;56.30;;;;;;10415246;28;88131;-64
2023/06/06 11:28:01;;;;;;;;;;;21.70;56.30;;;;;;10416166;28;89897;-64
2023/06/06 11:33:07;;;;;;;;;;;21.60;56.30;;;;;;10414952;28;87789;-64
2023/06/06 11:38:09;;;;;;;;;;;21.70;56.40;;;;;;10415621;28;90144;-64
2023/06/06 11:43:11;;;;;;;;;;;21.60;56.40;;;;;;10397230;28;90054;-64
2023/06/06 11:48:26;;;;;;;;;;;21.60;56.50;;;;;;10395217;28;89959;-64
2023/06/06 11:53:32;;;;;;;;;;;21.60;56.50;;;;;;10396441;28;88865;-64
2023/06/06 11:58:38;;;;;;;;;;;21.60;56.60;;;;;;10414585;28;89246;-64
2023/06/06 12:03:40;;;;;;;;;;;21.60;56.60;;;;;;10414338;28;89172;-64
2023/06/06 12:08:42;;;;;;;;;;;21.60;56.70;;;;;;10418021;27;90027;-64
2023/06/06 12:13:44;;;;;;;;;;;21.60;56.60;;;;;;10422315;28;89279;-64
2023/06/06 12:18:46;;;;;;;;;;;21.60;56.70;;;;;;10421075;28;90067;-64
2023/06/06 12:23:48;;;;;;;;;;;21.60;56.70;;;;;;10421922;28;88517;-64
2023/06/06 12:28:59;;;;;;;;;;;21.60;56.80;;;;;;10421121;28;89038;-64
2023/06/06 12:34:01;;;;;;;;;;;21.60;56.80;;;;;;10420565;28;89957;-63
2023/06/06 12:39:03;;;;;;;;;;;21.60;56.80;;;;;;10420259;28;90732;-63
2023/06/06 12:44:06;;;;;;;;;;;21.60;56.80;;;;;;10419846;28;88992;-63
2023/06/06 12:49:08;;;;;;;;;;;21.60;56.80;;;;;;10419461;28;89395;-63
2023/06/06 12:54:10;;;;;;;;;;;21.60;56.90;;;;;;10402338;28;89262;-64
2023/06/06 12:59:12;;;;;;;;;;;21.60;56.90;;;;;;10419995;28;90002;-63
2023/06/06 13:04:14;;;;;;;;;;;21.60;56.90;;;;;;10420245;28;89971;-64
2023/06/06 13:09:17;;;;;;;;;;;21.60;56.90;;;;;;10420142;28;90199;-64
2023/06/06 13:14:19;;;;;;;;;;;21.60;57.00;;;;;;10421632;28;88845;-64
2023/06/06 13:19:21;;;;;;;;;;;21.60;57.00;;;;;;10419811;27;88815;-63
2023/06/06 13:24:23;;;;;;;;;;;21.60;57.00;;;;;;10419339;28;89801;-63
2023/06/06 13:29:25;;;;;;;;;;;21.60;57.10;;;;;;10418727;28;89626;-63
2023/06/06 13:34:27;;;;;;;;;;;21.60;57.10;;;;;;10418865;28;89088;-63
2023/06/06 13:39:29;;;;;;;;;;;21.60;57.10;;;;;;10419508;28;89707;-63
2023/06/06 13:44:31;;;;;;;;;;;21.60;57.10;;;;;;10418997;28;90737;-64
2023/06/06 13:49:33;;;;;;;;;;;21.60;57.10;;;;;;10398970;28;88880;-64
2023/06/06 13:54:35;;;;;;;;;;;21.60;57.30;;;;;;10418547;28;89528;-64
2023/06/06 13:59:37;;;;;;;;;;;21.50;57.20;;;;;;10418398;28;88739;-63
2023/06/06 14:04:39;;;;;;;;;;;21.60;57.40;;;;;;10418238;28;89318;-64
2023/06/06 14:09:41;;;;;;;;;;;21.50;57.40;;;;;;10418102;28;88831;-64
2023/06/06 14:14:43;;;;;;;;;;;21.50;57.40;;;;;;10416971;28;89327;-64
2023/06/06 14:19:50;;;;;;;;;;;21.50;57.40;;;;;;10398916;28;90823;-63
2023/06/06 14:24:55;;;;;;;;;;;21.50;57.40;;;;;;10417656;28;89134;-64
2023/06/06 14:29:58;;;;;;;;;;;21.50;57.40;;;;;;10417081;27;89551;-64
2023/06/06 14:35:07;;;;;;;;;;;21.50;57.50;;;;;;10417327;28;89224;-64
2023/06/06 14:40:10;;;;;;;;;;;21.50;57.50;;;;;;10416432;28;89675;-63
2023/06/06 14:45:14;;;;;;;;;;;21.50;57.40;;;;;;10417038;28;90236;-63
2023/06/06 14:50:15;;;;;;;;;;;21.50;57.40;;;;;;10416206;28;90523;-63
2023/06/06 14:55:17;;;;;;;;;;;21.50;57.40;;;;;;10416884;28;88560;-64
2023/06/06 15:00:19;;;;;;;;;;;21.50;57.50;;;;;;10416388;28;90068;-64
2023/06/06 15:05:21;;;;;;;;;;;21.50;57.60;;;;;;10381953;28;89980;-64
2023/06/06 15:10:23;;;;;;;;;;;21.50;57.50;;;;;;10397680;28;90867;-64
2023/06/06 15:15:25;;;;;;;;;;;21.50;57.40;;;;;;10416086;28;89985;-64
2023/06/06 15:20:28;;;;;;;;;;;21.50;57.50;;;;;;10415817;28;89447;-64
2023/06/06 15:25:29;;;;;;;;;;;21.50;57.40;;;;;;10415733;28;90101;-64
2023/06/06 15:30:31;;;;;;;;;;;21.50;57.40;;;;;;10415719;28;89666;-64
2023/06/06 15:35:33;;;;;;;;;;;21.50;57.50;;;;;;10396258;28;88485;-64
2023/06/06 15:40:35;;;;;;;;;;;21.50;57.50;;;;;;10415489;27;88248;-64
2023/06/06 15:45:37;;;;;;;;;;;21.50;57.60;;;;;;10423128;28;88469;-64
2023/06/06 15:50:38;;;;;;;;;;;21.50;57.60;;;;;;10421263;28;88723;-64
2023/06/06 15:55:41;;;;;;;;;;;21.50;57.70;;;;;;10422193;28;89265;-64
2023/06/06 16:00:43;;;;;;;;;;;21.50;57.70;;;;;;10402536;28;89399;-64
2023/06/06 16:05:45;;;;;;;;;;;21.40;57.70;;;;;;10422331;28;90058;-63
2023/06/06 16:10:47;;;;;;;;;;;21.50;57.80;;;;;;10420758;28;90094;-64
2023/06/06 16:15:48;;;;;;;;;;;21.50;57.90;;;;;;10403230;28;90260;-63
2023/06/06 16:20:50;;;;;;;;;;;21.50;58.20;;;;;;10420734;28;90204;-63
2023/06/06 16:25:52;;;;;;;;;;;21.60;60.00;;;;;;10421094;28;90112;-63
2023/06/06 16:30:54;;;;;;;;;;;21.60;59.20;;;;;;10420428;28;89904;-63
2023/06/06 16:35:56;;;;;;;;;;;21.70;57.40;;;;;;10420867;28;88952;-63
2023/06/06 16:41:01;;;;;;;;;;;21.70;57.00;;;;;;10402936;28;90054;-63
2023/06/06 16:46:03;;;;;;;;;;;21.70;56.70;;;;;;10401884;28;89933;-63
2023/06/06 16:51:05;;;;;;;;;;;21.70;56.60;;;;;;10419353;28;90086;-63
2023/06/06 16:56:07;;;;;;;;;;;21.70;56.50;;;;;;10420688;28;90057;-63
2023/06/06 17:01:09;;;;;;;;;;;21.80;56.40;;;;;;10420369;28;90064;-64
2023/06/06 17:06:11;;;;;;;;;;;21.80;56.30;;;;;;10419968;28;88769;-63
2023/06/06 17:11:14;;;;;;;;;;;21.80;56.10;;;;;;10401773;28;90087;-63
2023/06/06 17:16:17;;;;;;;;;;;21.80;55.90;;;;;;10419472;28;89051;-63
2023/06/06 17:21:19;;;;;;;;;;;21.90;55.70;;;;;;10418938;28;89076;-63
2023/06/06 17:26:21;;;;;;;;;;;21.80;55.40;;;;;;10420497;28;89269;-63
2023/06/06 17:31:23;;;;;;;;;;;21.90;55.20;;;;;;10418884;28;89182;-64
2023/06/06 17:36:25;;;;;;;;;;;21.90;55.10;;;;;;10419773;28;88501;-63
2023/06/06 17:41:27;;;;;;;;;;;21.90;55.20;;;;;;10400419;28;90887;-63
2023/06/06 17:46:29;;;;;;;;;;;22.00;55.10;;;;;;10418180;28;89004;-63
2023/06/06 17:51:31;;;;;;;;;;;22.00;55.00;;;;;;10417845;28;89096;-63
2023/06/06 17:56:33;;;;;;;;;;;22.10;54.90;;;;;;10400126;28;89094;-63
2023/06/06 18:01:35;;;;;;;;;;;22.00;54.60;;;;;;10417962;28;89858;-63
2023/06/06 18:06:37;;;;;;;;;;;22.10;54.60;;;;;;10417606;27;89737;-63
2023/06/06 18:11:39;;;;;;;;;;;22.20;54.30;;;;;;10417308;28;89246;-63
2023/06/06 18:16:41;;;;;;;;;;;22.20;54.00;;;;;;10399852;28;88526;-63
2023/06/06 18:21:44;;;;;;;;;;;22.20;53.60;;;;;;10399915;28;90128;-63
2023/06/06 18:26:46;;;;;;;;;;;22.20;53.40;;;;;;10417368;28;90237;-63
2023/06/06 18:31:47;;;;;;;;;;;22.30;53.20;;;;;;10415832;28;89179;-63
2023/06/06 18:36:50;;;;;;;;;;;22.30;52.90;;;;;;10417391;28;89702;-63
2023/06/06 18:41:51;;;;;;;;;;;22.20;52.70;;;;;;10417392;28;89150;-63
2023/06/06 18:46:53;;;;;;;;;;;22.20;52.70;;;;;;10398214;28;89145;-63
2023/06/06 18:51:56;;;;;;;;;;;22.10;52.80;;;;;;10415708;28;88399;-64
2023/06/06 18:56:58;;;;;;;;;;;22.00;52.90;;;;;;10416488;28;89653;-64
2023/06/06 19:02:05;;;;;;;;;;;21.90;52.60;;;;;;10397543;28;89137;-64
2023/06/06 19:07:07;;;;;;;;;;;21.90;52.50;;;;;;10416573;28;89216;-64
2023/06/06 19:12:09;;;;;;;;;;;21.80;52.30;;;;;;10415648;28;88292;-64
2023/06/06 19:17:11;;;;;;;;;;;21.80;52.30;;;;;;10415518;28;90909;-65
2023/06/06 19:22:13;;;;;;;;;;;21.70;52.20;;;;;;10396778;28;90740;-64
2023/06/06 19:27:15;;;;;;;;;;;21.70;52.10;;;;;;10396608;28;89050;-65
2023/06/06 19:32:19;;;;;;;;;;;21.70;52.20;;;;;;10414416;28;108232;-64
2023/06/06 19:37:25;;;;;;;;;;;21.60;51.90;;;;;;10398319;28;88860;-64
2023/06/06 19:42:27;;;;;;;;;;;21.60;51.90;;;;;;10415412;28;90228;-65
2023/06/06 19:47:29;;;;;;;;;;;21.60;52.20;;;;;;10412970;28;88433;-64
2023/06/06 19:52:31;;;;;;;;;;;21.50;52.30;;;;;;10414699;28;89805;-65
2023/06/06 19:57:33;;;;;;;;;;;21.60;52.50;;;;;;10379904;28;89007;-64
2023/06/06 20:02:35;;;;;;;;;;;21.50;52.50;;;;;;10413145;28;88104;-64
2023/06/06 20:07:38;;;;;;;;;;;21.50;52.60;;;;;;10412915;28;88837;-65
2023/06/06 20:12:40;;;;;;;;;;;21.50;52.70;;;;;;10395156;28;89649;-65
2023/06/06 20:17:42;;;;;;;;;;;21.50;52.80;;;;;;10396571;28;88823;-65
2023/06/06 20:22:45;;;;;;;;;;;21.50;52.90;;;;;;10394934;28;91719;-64
2023/06/06 20:27:51;;;;;;;;;;;21.50;53.10;;;;;;10413637;27;88994;-65
2023/06/06 20:32:53;;;;;;;;;;;21.50;53.20;;;;;;10419718;28;90197;-65
2023/06/06 20:37:55;;;;;;;;;;;21.50;53.40;;;;;;10420370;28;90337;-65
2023/06/06 20:42:56;;;;;;;;;;;21.50;53.50;;;;;;10420122;28;90578;-65
2023/06/06 20:47:58;;;;;;;;;;;21.50;53.60;;;;;;10402421;28;88395;-65
2023/06/06 20:53:00;;;;;;;;;;;21.50;53.60;;;;;;10418940;28;90040;-65
2023/06/06 20:58:05;;;;;;;;;;;21.50;53.60;;;;;;10402220;28;88748;-64
2023/06/06 21:03:09;;;;;;;;;;;21.50;53.70;;;;;;10418312;28;89800;-64
2023/06/06 21:08:12;;;;;;;;;;;21.40;53.80;;;;;;10419225;28;89486;-65
2023/06/06 21:13:13;;;;;;;;;;;21.40;53.80;;;;;;10419189;28;89164;-64
2023/06/06 21:18:15;;;;;;;;;;;21.40;53.80;;;;;;10401703;28;88189;-64
2023/06/06 21:23:17;;;;;;;;;;;21.40;53.80;;;;;;10400794;28;90384;-65
2023/06/06 21:28:19;;;;;;;;;;;21.40;53.90;;;;;;10418422;28;90139;-64
2023/06/06 21:33:21;;;;;;;;;;;21.40;54.00;;;;;;10418279;28;90058;-65
2023/06/06 21:38:23;;;;;;;;;;;21.40;54.10;;;;;;10419469;28;89306;-64
2023/06/06 21:43:25;;;;;;;;;;;21.40;54.10;;;;;;10399698;28;88484;-65
2023/06/06 21:48:26;;;;;;;;;;;21.40;54.10;;;;;;10417649;28;89222;-65
2023/06/06 21:53:28;;;;;;;;;;;21.40;54.10;;;;;;10399889;28;90256;-64
2023/06/06 21:58:30;;;;;;;;;;;21.40;54.00;;;;;;10400619;28;88985;-65
2023/06/06 22:03:32;;;;;;;;;;;21.40;54.00;;;;;;10418738;28;89671;-64
2023/06/06 22:08:34;;;;;;;;;;;21.40;54.00;;;;;;10418170;28;90609;-65
2023/06/06 22:13:36;;;;;;;;;;;21.40;53.90;;;;;;10417618;28;90218;-64
2023/06/06 22:18:38;;;;;;;;;;;21.40;53.90;;;;;;10417332;28;90217;-64
2023/06/06 22:23:42;;;;;;;;;;;21.40;54.00;;;;;;10418001;28;91264;-64
2023/06/06 22:28:44;;;;;;;;;;;21.30;54.00;;;;;;10400154;28;89280;-64
2023/06/06 22:33:46;;;;;;;;;;;21.40;54.00;;;;;;10399558;28;89752;-65
2023/06/06 22:38:48;;;;;;;;;;;21.30;54.00;;;;;;10398478;28;89193;-64
2023/06/06 22:43:50;;;;;;;;;;;21.30;53.90;;;;;;10415196;28;89271;-64
2023/06/06 22:48:51;;;;;;;;;;;21.30;53.90;;;;;;10414930;28;89069;-65
2023/06/06 22:53:54;;;;;;;;;;;21.30;53.90;;;;;;10414839;28;89129;-64
2023/06/06 22:58:57;;;;;;;;;;;21.30;53.90;;;;;;10415645;28;90065;-64
2023/06/06 23:03:59;;;;;;;;;;;21.30;54.90;;;;;;10415753;28;90449;-65
2023/06/06 23:09:01;;;;;;;;;;;21.30;54.00;;;;;;10398022;28;90690;-64
2023/06/06 23:14:03;;;;;;;;;;;21.30;53.90;;;;;;10415332;28;89962;-65
2023/06/06 23:19:05;;;;;;;;;;;21.30;54.00;;;;;;10416074;28;88918;-64
2023/06/06 23:24:07;;;;;;;;;;;21.30;53.90;;;;;;10415961;28;90212;-64
2023/06/06 23:29:09;;;;;;;;;;;21.20;53.90;;;;;;10416256;28;89891;-64
2023/06/06 23:34:11;;;;;;;;;;;21.20;54.00;;;;;;10414181;28;90837;-65
2023/06/06 23:39:13;;;;;;;;;;;21.20;54.00;;;;;;10397472;28;88214;-65
2023/06/06 23:44:16;;;;;;;;;;;21.20;53.90;;;;;;10396410;28;90052;-64
2023/06/06 23:49:18;;;;;;;;;;;21.20;54.10;;;;;;10414273;28;90153;-64
2023/06/06 23:54:20;;;;;;;;;;;21.20;53.90;;;;;;10414493;28;91215;-64
2023/06/06 23:59:22;;;;;;;;;;;21.20;54.00;;;;;;10413139;28;88619;-64
